aviador You're here:

KBLU Decoded Metar

EMIGRANT GAP in CA, USA
Report Time2017-09-26 11:52:00
UTC Time2017-09-26 12:34:32
Flight Rules vfr VFR
WindVRB at 05 kt
Visibility9999 m
Phenomena:N/A
Clouds:N/A
Expected CloudBase > 5,600 ft AGL from Temp-Dew spread
CeilingNone
Temp12°C (ISA +7)
Dew Point-2°C (38% RH)
AAT8.0°C
QNH1017 hPa
Density Alt6,102 ft
Elevation5,279 ft
Report Wrong Elevation
Raw Report
KBLU 261152Z AUTO VRB05KT 10SM CLR 12/M02 A3004 RMK AO2 SLP103
T01171022 10139 20117 56008 TSNO=

Extra information for KBLU:More info

Metar Taf Metar & Taf Last 4 Metars F.Rules Stats Wind Profile Meteogram Temp Stats Airport Information Weather charts Add Link Nearby VenuesMetar ALERT Operation Metar Decoded Social comments

AIRNAV info for KBLU